PWSweather.com
Personal Weather Stations
Station Observations
KAZTUCSO57
Countryside Manor, Tucson, AZ 85742

Countryside ManorTucson, AZ 85742

Lat: 32.3692, Lon: -111.066

Elevation: 2307

Station Type: Davis VP Pro+ 6163

http://frogville.us

High Low Average
Temperature 73.2°F22.9°C 43.7°F6.5°C 57.3°F14.1°C
Dew Point 45.7°F7.6°C 25.7°F-3.5°C 31.6°F-0.2°C
Winds 4.6 mph 7.4 kmh Calm Calm 1.0 mph SE1.6 kmh SE
Wind Gusts 8.1 mph13.0 kmh -- 2.0 mph3.2 kmh
Humidity 81% 20% 40%
Pressure 30.27 in1025.1 mb 30.13 in1020.3 mb -
Precipitation 0.00 in0.0 mm - -
Hour Temp Dew Point Humidity Winds Wind Gusts Pressure Precip Precip Rate Daily Precip Total
12:00 AM 51.4°F10.8°C 45.4°F7.4°C 80% Calm Calm 1.2 mph1.9 kmh 30.21 in1023.0 mb - 0.00 in0.0 mm 0.00 in0.0 mm
12:10 AM 51.3°F10.7°C 45.7°F7.6°C 81% Calm Calm 1.2 mph1.9 kmh 30.21 in1023.0 mb - 0.00 in0.0 mm 0.00 in0.0 mm
12:20 AM 51.2°F10.7°C 45.6°F7.6°C 81% Calm Calm -- 30.21 in1023.0 mb - 0.00 in0.0 mm 0.00 in0.0 mm
12:30 AM 51.1°F10.6°C 45.1°F7.3°C 80% 1.2 mph N1.9 kmh N 3.5 mph5.6 kmh 30.21 in1023.0 mb - 0.00 in0.0 mm 0.00 in0.0 mm
12:40 AM 51.3°F10.7°C 45.7°F7.6°C 81% 2.3 mph N3.7 kmh N 3.5 mph5.6 kmh 30.21 in1023.0 mb - 0.00 in0.0 mm 0.00 in0.0 mm
12:50 AM 51.6°F10.9°C 45.3°F7.4°C 79% 1.2 mph N1.9 kmh N 1.2 mph1.9 kmh 30.21 in1023.0 mb - 0.00 in0.0 mm 0.00 in0.0 mm
01:00 AM 51.8°F11.0°C 44.5°F6.9°C 76% 2.3 mph NNE3.7 kmh NNE 3.5 mph5.6 kmh 30.21 in1023.0 mb - 0.00 in0.0 mm 0.00 in0.0 mm
01:10 AM 51.8°F11.0°C 41.6°F5.3°C 68% 1.2 mph N1.9 kmh N 3.5 mph5.6 kmh 30.21 in1023.0 mb - 0.00 in0.0 mm 0.00 in0.0 mm
01:20 AM 52.1°F11.2°C 37.8°F3.2°C 58% 3.5 mph N5.6 kmh N 4.6 mph7.4 kmh 30.21 in1023.0 mb - 0.00 in0.0 mm 0.00 in0.0 mm
01:30 AM 52.4°F11.3°C 34.8°F1.6°C 51% 2.3 mph N3.7 kmh N 3.5 mph5.6 kmh 30.21 in1023.0 mb - 0.00 in0.0 mm 0.00 in0.0 mm
01:40 AM 52.6°F11.4°C 32.9°F0.5°C 47% 2.3 mph NE3.7 kmh NE 3.5 mph5.6 kmh 30.21 in1023.0 mb - 0.00 in0.0 mm 0.00 in0.0 mm
01:50 AM 52.8°F11.6°C 32.0°F0.0°C 45% 3.5 mph NNE5.6 kmh NNE 8.1 mph13.0 kmh 30.21 in1023.0 mb - 0.00 in0.0 mm 0.00 in0.0 mm
02:00 AM 52.9°F11.6°C 31.6°F-0.2°C 44% 2.3 mph NNE3.7 kmh NNE 6.9 mph11.1 kmh 30.21 in1023.0 mb - 0.00 in0.0 mm 0.00 in0.0 mm
02:10 AM 52.8°F11.6°C 30.3°F-0.9°C 42% 3.5 mph NNE5.6 kmh NNE 5.8 mph9.3 kmh 30.21 in1023.0 mb - 0.00 in0.0 mm 0.00 in0.0 mm
02:20 AM 52.7°F11.5°C 29.6°F-1.3°C 41% 3.5 mph NE5.6 kmh NE 5.8 mph9.3 kmh 30.21 in1023.0 mb - 0.00 in0.0 mm 0.00 in0.0 mm
02:30 AM 52.6°F11.4°C 28.3°F-2.1°C 39% 3.5 mph NE5.6 kmh NE 6.9 mph11.1 kmh 30.22 in1023.4 mb - 0.00 in0.0 mm 0.00 in0.0 mm
02:40 AM 52.4°F11.3°C 28.8°F-1.8°C 40% 1.2 mph NE1.9 kmh NE 2.3 mph3.7 kmh 30.21 in1023.0 mb - 0.00 in0.0 mm 0.00 in0.0 mm
02:50 AM 52.0°F11.1°C 27.8°F-2.3°C 39% 1.2 mph E1.9 kmh E 6.9 mph11.1 kmh 30.21 in1023.0 mb - 0.00 in0.0 mm 0.00 in0.0 mm
03:00 AM 52.8°F11.6°C 27.2°F-2.7°C 37% 4.6 mph NE7.4 kmh NE 5.8 mph9.3 kmh 30.22 in1023.4 mb - 0.00 in0.0 mm 0.00 in0.0 mm
03:10 AM 52.7°F11.5°C 27.1°F-2.7°C 37% 2.3 mph NE3.7 kmh NE 3.5 mph5.6 kmh 30.22 in1023.4 mb - 0.00 in0.0 mm 0.00 in0.0 mm
03:20 AM 52.0°F11.1°C 27.2°F-2.7°C 38% 2.3 mph NE3.7 kmh NE 3.5 mph5.6 kmh 30.22 in1023.4 mb - 0.00 in0.0 mm 0.00 in0.0 mm
03:30 AM 51.7°F10.9°C 26.9°F-2.8°C 38% 2.3 mph NE3.7 kmh NE 3.5 mph5.6 kmh 30.22 in1023.4 mb - 0.00 in0.0 mm 0.00 in0.0 mm
03:40 AM 51.4°F10.8°C 26.6°F-3.0°C 38% 2.3 mph NE3.7 kmh NE 3.5 mph5.6 kmh 30.21 in1023.0 mb - 0.00 in0.0 mm 0.00 in0.0 mm
03:50 AM 51.1°F10.6°C 26.4°F-3.1°C 38% 1.2 mph NE1.9 kmh NE 3.5 mph5.6 kmh 30.22 in1023.4 mb - 0.00 in0.0 mm 0.00 in0.0 mm
04:00 AM 51.1°F10.6°C 26.3°F-3.2°C 38% 1.2 mph NE1.9 kmh NE 3.5 mph5.6 kmh 30.22 in1023.4 mb - 0.00 in0.0 mm 0.00 in0.0 mm
04:10 AM 51.1°F10.6°C 25.7°F-3.5°C 37% 2.3 mph SE3.7 kmh SE 4.6 mph7.4 kmh 30.21 in1023.0 mb - 0.00 in0.0 mm 0.00 in0.0 mm
04:20 AM 51.3°F10.7°C 25.9°F-3.4°C 37% Calm Calm 1.2 mph1.9 kmh 30.22 in1023.4 mb - 0.00 in0.0 mm 0.00 in0.0 mm
04:30 AM 51.0°F10.6°C 26.3°F-3.2°C 38% 1.2 mph E1.9 kmh E 3.5 mph5.6 kmh 30.22 in1023.4 mb - 0.00 in0.0 mm 0.00 in0.0 mm
04:40 AM 50.6°F10.3°C 25.9°F-3.4°C 38% Calm Calm 1.2 mph1.9 kmh 30.22 in1023.4 mb - 0.00 in0.0 mm 0.00 in0.0 mm
04:50 AM 50.1°F10.1°C 26.1°F-3.3°C 39% Calm Calm -- 30.22 in1023.4 mb - 0.00 in0.0 mm 0.00 in0.0 mm
05:00 AM 49.9°F9.9°C 26.5°F-3.1°C 40% 3.5 mph NE5.6 kmh NE 4.6 mph7.4 kmh 30.22 in1023.4 mb - 0.00 in0.0 mm 0.00 in0.0 mm
05:10 AM 49.8°F9.9°C 27.0°F-2.8°C 41% 2.3 mph NE3.7 kmh NE 3.5 mph5.6 kmh 30.22 in1023.4 mb - 0.00 in0.0 mm 0.00 in0.0 mm
05:20 AM 49.6°F9.8°C 26.2°F-3.2°C 40% 1.2 mph ENE1.9 kmh ENE 2.3 mph3.7 kmh 30.21 in1023.0 mb - 0.00 in0.0 mm 0.00 in0.0 mm
05:30 AM 49.6°F9.8°C 26.2°F-3.2°C 40% 1.2 mph NE1.9 kmh NE 4.6 mph7.4 kmh 30.22 in1023.4 mb - 0.00 in0.0 mm 0.00 in0.0 mm
05:40 AM 49.5°F9.7°C 26.1°F-3.3°C 40% 2.3 mph NE3.7 kmh NE 3.5 mph5.6 kmh 30.22 in1023.4 mb - 0.00 in0.0 mm 0.00 in0.0 mm
05:50 AM 49.4°F9.7°C 26.7°F-2.9°C 41% 2.3 mph NE3.7 kmh NE 3.5 mph5.6 kmh 30.22 in1023.4 mb - 0.00 in0.0 mm 0.00 in0.0 mm
06:00 AM 49.1°F9.5°C 27.0°F-2.8°C 42% 1.2 mph NE1.9 kmh NE 2.3 mph3.7 kmh 30.22 in1023.4 mb - 0.00 in0.0 mm 0.00 in0.0 mm
06:10 AM 48.7°F9.3°C 26.6°F-3.0°C 42% 1.2 mph NE1.9 kmh NE 2.3 mph3.7 kmh 30.22 in1023.4 mb - 0.00 in0.0 mm 0.00 in0.0 mm
06:20 AM 48.5°F9.2°C 26.4°F-3.1°C 42% Calm Calm 3.5 mph5.6 kmh 30.23 in1023.7 mb - 0.00 in0.0 mm 0.00 in0.0 mm
06:30 AM 48.3°F9.1°C 26.2°F-3.2°C 42% 1.2 mph NE1.9 kmh NE 3.5 mph5.6 kmh 30.23 in1023.7 mb - 0.00 in0.0 mm 0.00 in0.0 mm
06:40 AM 48.5°F9.2°C 25.8°F-3.4°C 41% 2.3 mph NE3.7 kmh NE 3.5 mph5.6 kmh 30.23 in1023.7 mb - 0.00 in0.0 mm 0.00 in0.0 mm
06:50 AM 48.6°F9.2°C 26.0°F-3.3°C 41% 2.3 mph N3.7 kmh N 5.8 mph9.3 kmh 30.23 in1023.7 mb - 0.00 in0.0 mm 0.00 in0.0 mm
07:00 AM 48.7°F9.3°C 26.0°F-3.3°C 41% Calm Calm 3.5 mph5.6 kmh 30.24 in1024.0 mb - 0.00 in0.0 mm 0.00 in0.0 mm
07:10 AM 48.6°F9.2°C 27.6°F-2.4°C 44% Calm Calm 1.2 mph1.9 kmh 30.24 in1024.0 mb - 0.00 in0.0 mm 0.00 in0.0 mm
07:20 AM 47.2°F8.4°C 28.5°F-1.9°C 48% Calm Calm -- 30.23 in1023.7 mb - 0.00 in0.0 mm 0.00 in0.0 mm
07:30 AM 45.6°F7.6°C 28.5°F-1.9°C 51% Calm Calm 1.2 mph1.9 kmh 30.24 in1024.0 mb - 0.00 in0.0 mm 0.00 in0.0 mm
07:40 AM 44.5°F6.9°C 28.9°F-1.7°C 54% Calm Calm 2.3 mph3.7 kmh 30.24 in1024.0 mb - 0.00 in0.0 mm 0.00 in0.0 mm
07:50 AM 43.9°F6.6°C 28.8°F-1.8°C 55% Calm Calm -- 30.24 in1024.0 mb - 0.00 in0.0 mm 0.00 in0.0 mm
08:00 AM 43.7°F6.5°C 29.0°F-1.7°C 56% Calm Calm 1.2 mph1.9 kmh 30.25 in1024.4 mb - 0.00 in0.0 mm 0.00 in0.0 mm
08:10 AM 44.0°F6.7°C 29.3°F-1.5°C 56% Calm Calm 2.3 mph3.7 kmh 30.25 in1024.4 mb - 0.00 in0.0 mm 0.00 in0.0 mm
08:20 AM 44.9°F7.2°C 29.3°F-1.5°C 54% Calm Calm 2.3 mph3.7 kmh 30.26 in1024.7 mb - 0.00 in0.0 mm 0.00 in0.0 mm
08:30 AM 46.0°F7.8°C 29.8°F-1.2°C 53% Calm Calm -- 30.26 in1024.7 mb - 0.00 in0.0 mm 0.00 in0.0 mm
08:40 AM 47.4°F8.6°C 29.7°F-1.3°C 50% Calm Calm 2.3 mph3.7 kmh 30.27 in1025.1 mb - 0.00 in0.0 mm 0.00 in0.0 mm
08:50 AM 49.3°F9.6°C 29.9°F-1.2°C 47% 1.2 mph E1.9 kmh E 2.3 mph3.7 kmh 30.27 in1025.1 mb - 0.00 in0.0 mm 0.00 in0.0 mm
09:00 AM 50.7°F10.4°C 30.6°F-0.8°C 46% Calm Calm 1.2 mph1.9 kmh 30.27 in1025.1 mb - 0.00 in0.0 mm 0.00 in0.0 mm
09:10 AM 52.0°F11.1°C 30.8°F-0.7°C 44% 1.2 mph NE1.9 kmh NE 3.5 mph5.6 kmh 30.27 in1025.1 mb - 0.00 in0.0 mm 0.00 in0.0 mm
09:20 AM 53.1°F11.7°C 30.6°F-0.8°C 42% 1.2 mph SSE1.9 kmh SSE 3.5 mph5.6 kmh 30.27 in1025.1 mb - 0.00 in0.0 mm 0.00 in0.0 mm
09:30 AM 53.9°F12.2°C 31.3°F-0.4°C 42% Calm Calm 2.3 mph3.7 kmh 30.27 in1025.1 mb - 0.00 in0.0 mm 0.00 in0.0 mm
09:40 AM 55.0°F12.8°C 31.1°F-0.5°C 40% Calm Calm 1.2 mph1.9 kmh 30.27 in1025.1 mb - 0.00 in0.0 mm 0.00 in0.0 mm
09:50 AM 56.2°F13.4°C 30.9°F-0.6°C 38% 2.3 mph NNE3.7 kmh NNE 3.5 mph5.6 kmh 30.27 in1025.1 mb - 0.00 in0.0 mm 0.00 in0.0 mm
10:00 AM 57.4°F14.1°C 31.3°F-0.4°C 37% 2.3 mph NNE3.7 kmh NNE 3.5 mph5.6 kmh 30.27 in1025.1 mb - 0.00 in0.0 mm 0.00 in0.0 mm
10:10 AM 58.5°F14.7°C 32.3°F0.2°C 37% Calm Calm 2.3 mph3.7 kmh 30.27 in1025.1 mb - 0.00 in0.0 mm 0.00 in0.0 mm
10:20 AM 59.6°F15.3°C 33.3°F0.7°C 37% Calm Calm 1.2 mph1.9 kmh 30.27 in1025.1 mb - 0.00 in0.0 mm 0.00 in0.0 mm
10:30 AM 61.1°F16.2°C 33.2°F0.7°C 35% Calm Calm 1.2 mph1.9 kmh 30.27 in1025.1 mb - 0.00 in0.0 mm 0.00 in0.0 mm
10:40 AM 61.5°F16.4°C 32.9°F0.5°C 34% Calm Calm -- 30.27 in1025.1 mb - 0.00 in0.0 mm 0.00 in0.0 mm
10:50 AM 62.2°F16.8°C 32.7°F0.4°C 33% 1.2 mph SSW1.9 kmh SSW 2.3 mph3.7 kmh 30.26 in1024.7 mb - 0.00 in0.0 mm 0.00 in0.0 mm
11:00 AM 62.9°F17.2°C 33.3°F0.7°C 33% 1.2 mph W1.9 kmh W 3.5 mph5.6 kmh 30.26 in1024.7 mb - 0.00 in0.0 mm 0.00 in0.0 mm
11:10 AM 63.7°F17.6°C 31.7°F-0.2°C 30% 1.2 mph SW1.9 kmh SW 2.3 mph3.7 kmh 30.26 in1024.7 mb - 0.00 in0.0 mm 0.00 in0.0 mm
11:20 AM 64.2°F17.9°C 32.1°F0.1°C 30% 1.2 mph WSW1.9 kmh WSW 2.3 mph3.7 kmh 30.26 in1024.7 mb - 0.00 in0.0 mm 0.00 in0.0 mm
11:30 AM 65.2°F18.4°C 32.1°F0.1°C 29% 1.2 mph WSW1.9 kmh WSW 2.3 mph3.7 kmh 30.26 in1024.7 mb - 0.00 in0.0 mm 0.00 in0.0 mm
11:40 AM 65.9°F18.8°C 31.0°F-0.6°C 27% Calm Calm 2.3 mph3.7 kmh 30.25 in1024.4 mb - 0.00 in0.0 mm 0.00 in0.0 mm
11:50 AM 66.7°F19.3°C 30.7°F-0.7°C 26% 1.2 mph WSW1.9 kmh WSW 1.2 mph1.9 kmh 30.25 in1024.4 mb - 0.00 in0.0 mm 0.00 in0.0 mm
12:00 PM 67.6°F19.8°C 30.5°F-0.8°C 25% 1.2 mph WSW1.9 kmh WSW 3.5 mph5.6 kmh 30.25 in1024.4 mb - 0.00 in0.0 mm 0.00 in0.0 mm
12:10 PM 67.9°F19.9°C 30.8°F-0.7°C 25% 1.2 mph WNW1.9 kmh WNW 3.5 mph5.6 kmh 30.24 in1024.0 mb - 0.00 in0.0 mm 0.00 in0.0 mm
12:20 PM 68.5°F20.3°C 31.3°F-0.4°C 25% 1.2 mph W1.9 kmh W 3.5 mph5.6 kmh 30.24 in1024.0 mb - 0.00 in0.0 mm 0.00 in0.0 mm
12:30 PM 69.1°F20.6°C 29.7°F-1.3°C 23% 2.3 mph WNW3.7 kmh WNW 3.5 mph5.6 kmh 30.23 in1023.7 mb - 0.00 in0.0 mm 0.00 in0.0 mm
12:40 PM 69.3°F20.7°C 27.7°F-2.4°C 21% 2.3 mph NW3.7 kmh NW 4.6 mph7.4 kmh 30.23 in1023.7 mb - 0.00 in0.0 mm 0.00 in0.0 mm
12:50 PM 69.9°F21.1°C 28.2°F-2.1°C 21% 1.2 mph W1.9 kmh W 2.3 mph3.7 kmh 30.22 in1023.4 mb - 0.00 in0.0 mm 0.00 in0.0 mm
01:00 PM 69.9°F21.1°C 28.2°F-2.1°C 21% 2.3 mph NW3.7 kmh NW 3.5 mph5.6 kmh 30.21 in1023.0 mb - 0.00 in0.0 mm 0.00 in0.0 mm
01:10 PM 70.2°F21.2°C 29.6°F-1.3°C 22% 1.2 mph WNW1.9 kmh WNW 2.3 mph3.7 kmh 30.21 in1023.0 mb - 0.00 in0.0 mm 0.00 in0.0 mm
01:20 PM 71.0°F21.7°C 29.0°F-1.7°C 21% 1.2 mph NW1.9 kmh NW 3.5 mph5.6 kmh 30.20 in1022.7 mb - 0.00 in0.0 mm 0.00 in0.0 mm
01:30 PM 71.5°F21.9°C 29.5°F-1.4°C 21% 2.3 mph WSW3.7 kmh WSW 2.3 mph3.7 kmh 30.20 in1022.7 mb - 0.00 in0.0 mm 0.00 in0.0 mm
01:40 PM 71.7°F22.1°C 28.5°F-1.9°C 20% 1.2 mph WNW1.9 kmh WNW 3.5 mph5.6 kmh 30.19 in1022.4 mb - 0.00 in0.0 mm 0.00 in0.0 mm
01:50 PM 71.9°F22.2°C 29.8°F-1.2°C 21% 1.2 mph SW1.9 kmh SW 2.3 mph3.7 kmh 30.18 in1022.0 mb - 0.00 in0.0 mm 0.00 in0.0 mm
02:00 PM 71.9°F22.2°C 29.8°F-1.2°C 21% Calm Calm 1.2 mph1.9 kmh 30.18 in1022.0 mb - 0.00 in0.0 mm 0.00 in0.0 mm
02:10 PM 72.2°F22.3°C 30.1°F-1.1°C 21% 1.2 mph W1.9 kmh W 3.5 mph5.6 kmh 30.17 in1021.7 mb - 0.00 in0.0 mm 0.00 in0.0 mm
02:20 PM 72.5°F22.5°C 30.3°F-0.9°C 21% 1.2 mph WNW1.9 kmh WNW 3.5 mph5.6 kmh 30.17 in1021.7 mb - 0.00 in0.0 mm 0.00 in0.0 mm
02:30 PM 73.1°F22.8°C 29.6°F-1.3°C 20% Calm Calm 3.5 mph5.6 kmh 30.16 in1021.3 mb - 0.00 in0.0 mm 0.00 in0.0 mm
02:40 PM 73.2°F22.9°C 29.7°F-1.3°C 20% 1.2 mph WSW1.9 kmh WSW 2.3 mph3.7 kmh 30.16 in1021.3 mb - 0.00 in0.0 mm 0.00 in0.0 mm
02:50 PM 73.1°F22.8°C 29.6°F-1.3°C 20% 1.2 mph SW1.9 kmh SW 3.5 mph5.6 kmh 30.16 in1021.3 mb - 0.00 in0.0 mm 0.00 in0.0 mm
03:00 PM 73.1°F22.8°C 29.6°F-1.3°C 20% 1.2 mph NW1.9 kmh NW 2.3 mph3.7 kmh 30.16 in1021.3 mb - 0.00 in0.0 mm 0.00 in0.0 mm
03:10 PM 73.1°F22.8°C 29.6°F-1.3°C 20% 2.3 mph W3.7 kmh W 3.5 mph5.6 kmh 30.16 in1021.3 mb - 0.00 in0.0 mm 0.00 in0.0 mm
03:20 PM 72.6°F22.6°C 30.4°F-0.9°C 21% 1.2 mph WSW1.9 kmh WSW 3.5 mph5.6 kmh 30.16 in1021.3 mb - 0.00 in0.0 mm 0.00 in0.0 mm
03:30 PM 72.5°F22.5°C 30.3°F-0.9°C 21% 2.3 mph WNW3.7 kmh WNW 4.6 mph7.4 kmh 30.16 in1021.3 mb - 0.00 in0.0 mm 0.00 in0.0 mm
03:40 PM 72.1°F22.3°C 30.0°F-1.1°C 21% 1.2 mph W1.9 kmh W 3.5 mph5.6 kmh 30.16 in1021.3 mb - 0.00 in0.0 mm 0.00 in0.0 mm
03:50 PM 72.1°F22.3°C 32.2°F0.1°C 23% 2.3 mph WNW3.7 kmh WNW 3.5 mph5.6 kmh 30.15 in1021.0 mb - 0.00 in0.0 mm 0.00 in0.0 mm
04:00 PM 71.9°F22.2°C 33.1°F0.6°C 24% 2.3 mph SW3.7 kmh SW 5.8 mph9.3 kmh 30.15 in1021.0 mb - 0.00 in0.0 mm 0.00 in0.0 mm
04:10 PM 71.5°F21.9°C 32.8°F0.4°C 24% 1.2 mph WNW1.9 kmh WNW 3.5 mph5.6 kmh 30.15 in1021.0 mb - 0.00 in0.0 mm 0.00 in0.0 mm
04:20 PM 71.0°F21.7°C 32.4°F0.2°C 24% Calm Calm 3.5 mph5.6 kmh 30.15 in1021.0 mb - 0.00 in0.0 mm 0.00 in0.0 mm
04:30 PM 71.1°F21.7°C 32.5°F0.3°C 24% 1.2 mph W1.9 kmh W 3.5 mph5.6 kmh 30.14 in1020.7 mb - 0.00 in0.0 mm 0.00 in0.0 mm
04:40 PM 70.7°F21.5°C 32.1°F0.1°C 24% 1.2 mph WSW1.9 kmh WSW 2.3 mph3.7 kmh 30.18 in1022.0 mb - 0.00 in0.0 mm 0.00 in0.0 mm
04:50 PM 70.2°F21.2°C 32.7°F0.4°C 25% 1.2 mph WSW1.9 kmh WSW 3.5 mph5.6 kmh 30.14 in1020.7 mb - 0.00 in0.0 mm 0.00 in0.0 mm
05:00 PM 69.6°F20.9°C 32.2°F0.1°C 25% 2.3 mph WNW3.7 kmh WNW 3.5 mph5.6 kmh 30.14 in1020.7 mb - 0.00 in0.0 mm 0.00 in0.0 mm
05:10 PM 69.2°F20.7°C 32.8°F0.4°C 26% 1.2 mph SW1.9 kmh SW 2.3 mph3.7 kmh 30.14 in1020.7 mb - 0.00 in0.0 mm 0.00 in0.0 mm
05:20 PM 68.9°F20.5°C 32.6°F0.3°C 26% 2.3 mph WSW3.7 kmh WSW 3.5 mph5.6 kmh 30.14 in1020.7 mb - 0.00 in0.0 mm 0.00 in0.0 mm
05:30 PM 68.3°F20.2°C 33.0°F0.6°C 27% 1.2 mph SW1.9 kmh SW 2.3 mph3.7 kmh 30.14 in1020.7 mb - 0.00 in0.0 mm 0.00 in0.0 mm
05:40 PM 67.4°F19.7°C 33.1°F0.6°C 28% Calm Calm 1.2 mph1.9 kmh 30.14 in1020.7 mb - 0.00 in0.0 mm 0.00 in0.0 mm
05:50 PM 66.7°F19.3°C 33.4°F0.8°C 29% Calm Calm 1.2 mph1.9 kmh 30.13 in1020.3 mb - 0.00 in0.0 mm 0.00 in0.0 mm
06:00 PM 65.8°F18.8°C 34.3°F1.3°C 31% Calm Calm 1.2 mph1.9 kmh 30.13 in1020.3 mb - 0.00 in0.0 mm 0.00 in0.0 mm
06:10 PM 65.0°F18.3°C 35.2°F1.8°C 33% Calm Calm -- 30.13 in1020.3 mb - 0.00 in0.0 mm 0.00 in0.0 mm
06:20 PM 64.3°F17.9°C 36.0°F2.2°C 35% Calm Calm -- 30.14 in1020.7 mb - 0.00 in0.0 mm 0.00 in0.0 mm
06:30 PM 62.9°F17.2°C 36.9°F2.7°C 38% Calm Calm -- 30.14 in1020.7 mb - 0.00 in0.0 mm 0.00 in0.0 mm
06:40 PM 60.8°F16.0°C 37.0°F2.8°C 41% Calm Calm -- 30.14 in1020.7 mb - 0.00 in0.0 mm 0.00 in0.0 mm
06:50 PM 60.1°F15.6°C 36.3°F2.4°C 41% Calm Calm -- 30.15 in1021.0 mb - 0.00 in0.0 mm 0.00 in0.0 mm
07:00 PM 59.4°F15.2°C 36.3°F2.4°C 42% Calm Calm -- 30.15 in1021.0 mb - 0.00 in0.0 mm 0.00 in0.0 mm
07:10 PM 58.4°F14.7°C 36.0°F2.2°C 43% Calm Calm -- 30.14 in1020.7 mb - 0.00 in0.0 mm 0.00 in0.0 mm
07:20 PM 57.1°F13.9°C 36.5°F2.5°C 46% Calm Calm -- 30.14 in1020.7 mb - 0.00 in0.0 mm 0.00 in0.0 mm
07:30 PM 56.0°F13.3°C 35.5°F1.9°C 46% Calm Calm 2.3 mph3.7 kmh 30.15 in1021.0 mb - 0.00 in0.0 mm 0.00 in0.0 mm
07:40 PM 55.3°F12.9°C 35.9°F2.2°C 48% Calm Calm -- 30.15 in1021.0 mb - 0.00 in0.0 mm 0.00 in0.0 mm
07:50 PM 55.0°F12.8°C 35.7°F2.1°C 48% Calm Calm -- 30.15 in1021.0 mb - 0.00 in0.0 mm 0.00 in0.0 mm
08:00 PM 54.7°F12.6°C 34.8°F1.6°C 47% Calm Calm -- 30.15 in1021.0 mb - 0.00 in0.0 mm 0.00 in0.0 mm
08:10 PM 54.2°F12.3°C 33.9°F1.1°C 46% Calm Calm 2.3 mph3.7 kmh 30.14 in1020.7 mb - 0.00 in0.0 mm 0.00 in0.0 mm
08:20 PM 53.6°F12.0°C 32.2°F0.1°C 44% Calm Calm -- 30.15 in1021.0 mb - 0.00 in0.0 mm 0.00 in0.0 mm
08:30 PM 53.4°F11.9°C 32.6°F0.3°C 45% Calm Calm 2.3 mph3.7 kmh 30.15 in1021.0 mb - 0.00 in0.0 mm 0.00 in0.0 mm
08:40 PM 53.3°F11.8°C 32.5°F0.3°C 45% Calm Calm -- 30.15 in1021.0 mb - 0.00 in0.0 mm 0.00 in0.0 mm
08:50 PM 53.1°F11.7°C 33.4°F0.8°C 47% Calm Calm -- 30.15 in1021.0 mb - 0.00 in0.0 mm 0.00 in0.0 mm
09:00 PM 52.9°F11.6°C 33.7°F0.9°C 48% Calm Calm -- 30.15 in1021.0 mb - 0.00 in0.0 mm 0.00 in0.0 mm
09:10 PM 52.5°F11.4°C 33.9°F1.1°C 49% Calm Calm -- 30.16 in1021.3 mb - 0.00 in0.0 mm 0.00 in0.0 mm
09:20 PM 51.9°F11.1°C 33.8°F1.0°C 50% Calm Calm -- 30.16 in1021.3 mb - 0.00 in0.0 mm 0.00 in0.0 mm
09:30 PM 51.4°F10.8°C 33.9°F1.1°C 51% Calm Calm 1.2 mph1.9 kmh 30.16 in1021.3 mb - 0.00 in0.0 mm 0.00 in0.0 mm
09:40 PM 50.4°F10.2°C 33.4°F0.8°C 52% 1.2 mph NE1.9 kmh NE 3.5 mph5.6 kmh 30.16 in1021.3 mb - 0.00 in0.0 mm 0.00 in0.0 mm
09:50 PM 49.7°F9.8°C 33.2°F0.7°C 53% 1.2 mph NE1.9 kmh NE 2.3 mph3.7 kmh 30.17 in1021.7 mb - 0.00 in0.0 mm 0.00 in0.0 mm
10:00 PM 49.5°F9.7°C 33.5°F0.8°C 54% Calm Calm -- 30.17 in1021.7 mb - 0.00 in0.0 mm 0.00 in0.0 mm
10:10 PM 49.4°F9.7°C 33.4°F0.8°C 54% 1.2 mph NE1.9 kmh NE 1.2 mph1.9 kmh 30.17 in1021.7 mb - 0.00 in0.0 mm 0.00 in0.0 mm
10:20 PM 49.3°F9.6°C 33.3°F0.7°C 54% Calm Calm -- 30.17 in1021.7 mb - 0.00 in0.0 mm 0.00 in0.0 mm
10:30 PM 49.2°F9.6°C 32.8°F0.4°C 53% Calm Calm -- 30.17 in1021.7 mb - 0.00 in0.0 mm 0.00 in0.0 mm
10:40 PM 49.0°F9.4°C 32.6°F0.3°C 53% Calm Calm 1.2 mph1.9 kmh 30.17 in1021.7 mb - 0.00 in0.0 mm 0.00 in0.0 mm
10:50 PM 48.8°F9.3°C 32.4°F0.2°C 53% Calm Calm 1.2 mph1.9 kmh 30.17 in1021.7 mb - 0.00 in0.0 mm 0.00 in0.0 mm
11:00 PM 48.8°F9.3°C 31.9°F-0.1°C 52% Calm Calm 1.2 mph1.9 kmh 30.18 in1022.0 mb - 0.00 in0.0 mm 0.00 in0.0 mm
11:10 PM 48.7°F9.3°C 31.8°F-0.1°C 52% 2.3 mph NE3.7 kmh NE 3.5 mph5.6 kmh 30.18 in1022.0 mb - 0.00 in0.0 mm 0.00 in0.0 mm
11:20 PM 48.8°F9.3°C 31.9°F-0.1°C 52% 1.2 mph NE1.9 kmh NE 1.2 mph1.9 kmh 30.18 in1022.0 mb - 0.00 in0.0 mm 0.00 in0.0 mm
11:30 PM 48.8°F9.3°C 32.0°F0.0°C 52% 1.2 mph NE1.9 kmh NE 1.2 mph1.9 kmh 30.18 in1022.0 mb - 0.00 in0.0 mm 0.00 in0.0 mm
11:40 PM 48.6°F9.2°C 31.7°F-0.2°C 52% 1.2 mph NE1.9 kmh NE 2.3 mph3.7 kmh 30.17 in1021.7 mb - 0.00 in0.0 mm 0.00 in0.0 mm
11:50 PM 48.1°F8.9°C 31.8°F-0.1°C 53% Calm Calm 2.3 mph3.7 kmh 30.18 in1022.0 mb - 0.00 in0.0 mm 0.00 in0.0 mm